Time;durP1;ratioP1;P1;durP2;ratioP2;P2;SDS_P1;SDS_P2;PMS_P1;PMS_P2;Temp;Humidity;BMP_temperature;BMP_pressure;BME280_temperature;BME280_humidity;BME280_pressure;Samples;Min_cycle;Max_cycle;Signal;HPM_P1;HPM_P2
2022/04/05 00:00:57;;;;;;;22.20;11.90;;;;;-1.60;97230.60;;;;110719;1253;41179;-70
2022/04/05 00:03:27;;;;;;;23.40;12.60;;;;;-1.62;97229.80;;;;110732;1251;42468;-71
2022/04/05 00:05:56;;;;;;;23.40;11.70;;;;;-1.66;97222.00;;;;110768;1250;41636;-70
2022/04/05 00:08:26;;;;;;;19.40;10.70;;;;;-1.66;97221.40;;;;110792;1250;41182;-70
2022/04/05 00:10:55;;;;;;;19.10;10.30;;;;;-1.70;97220.20;;;;110606;1253;41139;-70
2022/04/05 00:13:25;;;;;;;19.00;10.10;;;;;-1.70;97219.20;;;;110608;1254;42067;-70
2022/04/05 00:15:54;;;;;;;19.00;10.70;;;;;-1.70;97213.60;;;;110683;1252;41160;-70
2022/04/05 00:18:24;;;;;;;19.70;10.00;;;;;-1.70;97215.40;;;;110778;1250;41254;-69
2022/04/05 00:20:54;;;;;;;23.40;12.00;;;;;-1.70;97206.40;;;;110822;1251;41158;-70
2022/04/05 00:23:23;;;;;;;20.80;10.90;;;;;-1.70;97206.80;;;;110812;1252;41823;-69
2022/04/05 00:25:53;;;;;;;19.30;11.10;;;;;-1.70;97198.20;;;;110612;1253;42464;-69
2022/04/05 00:28:24;;;;;;;19.60;10.00;;;;;-1.80;97193.20;;;;110775;1251;42104;-69
2022/04/05 00:30:55;;;;;;;18.00;9.60;;;;;-1.80;97190.80;;;;110807;1251;41282;-69
2022/04/05 00:33:25;;;;;;;22.10;10.30;;;;;-1.80;97191.00;;;;110901;1251;41162;-70
2022/04/05 00:35:55;;;;;;;20.20;11.00;;;;;-1.80;97185.00;;;;110961;1251;41833;-69
2022/04/05 00:38:25;;;;;;;18.90;9.90;;;;;-1.80;97182.60;;;;110907;1251;41174;-69
2022/04/05 00:40:54;;;;;;;18.10;10.10;;;;;-1.80;97178.60;;;;110803;1251;41592;-70
2022/04/05 00:43:23;;;;;;;17.70;9.60;;;;;-1.80;97175.20;;;;110789;1251;41939;-70
2022/04/05 00:45:54;;;;;;;19.80;8.90;;;;;-1.80;97174.60;;;;110870;1251;40747;-70
2022/04/05 00:48:57;;;;;;;22.40;9.90;;;;;-1.80;97170.60;;;;110823;1252;41161;-69
2022/04/05 00:51:28;;;;;;;18.90;9.50;;;;;-1.80;97171.60;;;;110732;1253;41274;-69
2022/04/05 00:54:04;;;;;;;18.50;9.80;;;;;-1.82;97165.60;;;;110823;1251;42396;-69
2022/04/05 00:56:36;;;;;;;22.70;10.60;;;;;-1.82;97168.40;;;;110702;1253;41910;-69
2022/04/05 00:59:07;;;;;;;17.30;9.30;;;;;-1.82;97164.60;;;;110743;1253;41262;-71
2022/04/05 01:01:38;;;;;;;19.30;9.60;;;;;-1.82;97160.20;;;;110793;1254;41148;-71
2022/04/05 01:04:10;;;;;;;18.10;9.20;;;;;-1.86;97160.60;;;;110748;1253;41192;-70
2022/04/05 01:06:44;;;;;;;16.90;8.70;;;;;-1.80;97152.80;;;;110734;1253;41131;-70
2022/04/05 01:09:15;;;;;;;16.40;8.90;;;;;-1.82;97151.20;;;;110845;1253;41696;-71
2022/04/05 01:11:46;;;;;;;16.20;8.90;;;;;-1.82;97148.00;;;;110714;1254;41236;-70
2022/04/05 01:14:16;;;;;;;19.50;9.80;;;;;-1.82;97148.40;;;;110541;1254;41166;-69
2022/04/05 01:16:47;;;;;;;23.20;10.70;;;;;-1.80;97142.40;;;;110788;1252;41323;-70
2022/04/05 01:19:17;;;;;;;16.90;9.40;;;;;-1.86;97138.80;;;;110736;1251;41291;-70
2022/04/05 01:21:46;;;;;;;19.80;10.80;;;;;-1.90;97139.60;;;;110713;1253;41268;-70
2022/04/05 01:24:16;;;;;;;18.80;10.60;;;;;-1.90;97146.20;;;;110732;1253;41159;-70
2022/04/05 01:26:48;;;;;;;19.10;9.50;;;;;-1.90;97141.80;;;;110779;1251;41159;-70
2022/04/05 01:29:21;;;;;;;17.40;9.60;;;;;-1.90;97145.00;;;;110750;1254;41262;-70
2022/04/05 01:31:58;;;;;;;18.20;9.70;;;;;-1.90;97141.60;;;;110743;1252;41725;-71
2022/04/05 01:34:29;;;;;;;18.60;9.00;;;;;-1.90;97142.40;;;;110717;1254;41126;-69
2022/04/05 01:37:02;;;;;;;17.10;9.50;;;;;-1.90;97137.40;;;;110905;1251;41140;-69
2022/04/05 01:39:35;;;;;;;17.60;9.50;;;;;-1.90;97136.60;;;;110723;1253;41155;-70
2022/04/05 01:42:17;;;;;;;18.40;9.90;;;;;-1.90;97131.60;;;;110615;1250;41614;-70
2022/04/05 01:44:46;;;;;;;18.20;9.90;;;;;-1.90;97134.00;;;;110839;1251;41133;-69
2022/04/05 01:47:17;;;;;;;17.90;9.70;;;;;-1.90;97128.00;;;;110847;1251;41247;-70
2022/04/05 01:49:51;;;;;;;16.60;8.60;;;;;-1.90;97128.00;;;;110688;1253;41899;-70
2022/04/05 01:52:20;;;;;;;15.90;8.40;;;;;-1.90;97129.20;;;;110435;1254;41163;-70
2022/04/05 01:54:50;;;;;;;18.10;9.40;;;;;-1.92;97126.40;;;;110851;1251;41960;-69
2022/04/05 01:57:22;;;;;;;17.80;9.30;;;;;-1.96;97129.00;;;;110678;1251;41149;-69
2022/04/05 01:59:51;;;;;;;19.60;8.90;;;;;-1.98;97117.60;;;;110809;1251;41381;-69
2022/04/05 02:02:20;;;;;;;16.30;8.80;;;;;-2.00;97117.20;;;;110850;1251;41359;-69
2022/04/05 02:04:51;;;;;;;17.30;8.50;;;;;-2.00;97120.00;;;;110882;1250;42327;-69
2022/04/05 02:07:23;;;;;;;;;;;;;-2.00;97122.40;;;;110866;1251;41265;-69
2022/04/05 02:09:53;;;;;;;17.30;8.80;;;;;-2.00;97120.00;;;;110684;1253;41416;-68
2022/04/05 02:12:23;;;;;;;17.20;9.00;;;;;-2.00;97119.40;;;;110699;1253;41733;-69
2022/04/05 02:15:08;;;;;;;16.80;8.20;;;;;-2.04;97118.40;;;;110663;1252;41173;-69
2022/04/05 02:17:45;;;;;;;17.30;9.10;;;;;-2.08;97118.60;;;;110897;1252;41143;-69
2022/04/05 02:20:19;;;;;;;22.10;10.60;;;;;-2.08;97119.60;;;;110771;1252;41156;-70
2022/04/05 02:22:49;;;;;;;18.20;9.70;;;;;-2.10;97117.40;;;;110897;1251;41499;-69
2022/04/05 02:25:32;;;;;;;20.40;9.90;;;;;-2.10;97118.80;;;;110797;1252;41254;-70
2022/04/05 02:28:04;;;;;;;21.30;11.90;;;;;-2.10;97112.20;;;;110810;1251;41738;-69
2022/04/05 02:30:41;;;;;;;23.00;12.80;;;;;-2.10;97110.00;;;;110667;1254;41137;-70
2022/04/05 02:33:12;;;;;;;21.30;12.20;;;;;-2.10;97112.40;;;;110724;1251;41533;-70
2022/04/05 02:35:43;;;;;;;22.50;12.50;;;;;-2.10;97108.00;;;;110582;1254;41958;-69
2022/04/05 02:38:13;;;;;;;23.50;13.30;;;;;-2.10;97106.20;;;;110692;1254;41608;-70
2022/04/05 02:40:44;;;;;;;22.00;11.30;;;;;-2.10;97109.00;;;;110820;1251;41158;-70
2022/04/05 02:43:16;;;;;;;21.70;11.20;;;;;-2.10;97111.40;;;;110760;1253;41207;-70
2022/04/05 02:45:46;;;;;;;19.20;10.30;;;;;-2.10;97111.60;;;;110738;1251;41122;-70
2022/04/05 02:48:17;;;;;;;;;;;;;-2.20;97102.20;;;;110771;1251;41172;-70
2022/04/05 02:50:47;;;;;;;19.80;10.60;;;;;-2.20;97096.80;;;;110719;1254;41734;-69
2022/04/05 02:53:19;;;;;;;17.80;9.10;;;;;-2.20;97096.20;;;;110807;1251;41269;-69
2022/04/05 02:55:49;;;;;;;19.80;9.60;;;;;-2.20;97098.00;;;;110658;1254;41636;-70
2022/04/05 02:58:19;;;;;;;15.30;8.20;;;;;-2.24;97094.40;;;;110741;1251;41150;-69
2022/04/05 03:00:49;;;;;;;;;;;;;-2.30;97092.80;;;;110817;1251;41349;-69
2022/04/05 03:03:20;;;;;;;14.80;7.90;;;;;-2.30;97088.80;;;;110796;1251;41287;-69
2022/04/05 03:05:52;;;;;;;17.70;9.70;;;;;-2.34;97092.40;;;;110593;1251;41952;-70
2022/04/05 03:08:24;;;;;;;18.00;9.60;;;;;-2.38;97091.60;;;;110815;1250;41583;-70
2022/04/05 03:10:54;;;;;;;19.40;10.00;;;;;-2.40;97086.80;;;;111024;1251;41347;-70
2022/04/05 03:13:25;;;;;;;17.80;10.00;;;;;-2.40;97085.00;;;;110769;1252;40837;-69
2022/04/05 03:15:55;;;;;;;19.50;10.30;;;;;-2.40;97080.60;;;;110820;1251;41608;-69
2022/04/05 03:18:25;;;;;;;20.10;10.70;;;;;-2.40;97079.60;;;;110893;1251;41144;-69
2022/04/05 03:20:55;;;;;;;19.00;10.10;;;;;-2.40;97082.00;;;;110923;1250;42184;-69
2022/04/05 03:23:26;;;;;;;20.70;11.90;;;;;-2.40;97071.20;;;;110746;1251;41845;-68
2022/04/05 03:25:56;;;;;;;19.30;10.40;;;;;-2.40;97065.40;;;;110810;1251;41525;-70
2022/04/05 03:28:27;;;;;;;17.70;10.40;;;;;-2.40;97066.40;;;;110816;1251;41613;-69
2022/04/05 03:30:56;;;;;;;20.30;10.40;;;;;-2.50;97065.40;;;;110769;1253;41261;-68
2022/04/05 03:33:26;;;;;;;17.50;9.30;;;;;-2.50;97063.20;;;;110882;1251;41762;-69
2022/04/05 03:35:57;;;;;;;18.70;9.90;;;;;-2.50;97058.20;;;;110779;1252;41619;-70
2022/04/05 03:38:29;;;;;;;17.10;9.10;;;;;-2.50;97062.80;;;;110762;1251;41157;-70
2022/04/05 03:41:03;;;;;;;16.10;8.40;;;;;-2.50;97067.40;;;;110900;1251;41128;-69
2022/04/05 03:43:40;;;;;;;19.60;9.70;;;;;-2.52;97066.00;;;;110559;1254;41898;-70
2022/04/05 03:46:10;;;;;;;21.00;10.70;;;;;-2.60;97065.40;;;;110715;1251;41269;-69
2022/04/05 03:48:40;;;;;;;16.30;9.00;;;;;-2.60;97068.20;;;;110817;1251;41492;-70
2022/04/05 03:51:10;;;;;;;18.30;9.80;;;;;-2.60;97067.00;;;;110936;1251;41278;-69
2022/04/05 03:53:44;;;;;;;17.00;8.90;;;;;-2.60;97071.00;;;;110826;1251;41156;-70
2022/04/05 03:56:18;;;;;;;18.10;9.30;;;;;-2.60;97069.00;;;;110770;1251;41990;-69
2022/04/05 03:58:49;;;;;;;17.10;9.30;;;;;-2.60;97069.20;;;;110806;1251;41770;-69
2022/04/05 04:01:19;;;;;;;17.00;8.80;;;;;-2.60;97068.60;;;;110799;1251;41155;-69
2022/04/05 04:03:49;;;;;;;18.50;9.90;;;;;-2.60;97063.80;;;;110708;1253;41131;-70
2022/04/05 04:06:18;;;;;;;20.10;10.00;;;;;-2.60;97063.20;;;;110843;1251;41196;-70
2022/04/05 04:08:48;;;;;;;22.80;10.60;;;;;-2.60;97059.60;;;;110869;1251;41471;-70
2022/04/05 04:11:18;;;;;;;17.40;9.20;;;;;-2.60;97059.40;;;;110830;1251;41024;-69
2022/04/05 04:13:48;;;;;;;16.70;9.30;;;;;-2.54;97054.00;;;;110709;1253;41237;-70
2022/04/05 04:16:20;;;;;;;16.80;9.20;;;;;-2.50;97056.60;;;;110662;1254;41147;-69
2022/04/05 04:18:50;;;;;;;18.10;9.60;;;;;-2.50;97059.40;;;;110872;1251;41355;-68
2022/04/05 04:21:19;;;;;;;19.80;10.40;;;;;-2.42;97051.60;;;;110824;1251;42418;-70
2022/04/05 04:23:49;;;;;;;19.50;10.00;;;;;-2.40;97052.80;;;;110948;1251;41132;-69
2022/04/05 04:26:18;;;;;;;17.30;9.10;;;;;-2.30;97054.40;;;;110917;1251;41421;-69
2022/04/05 04:28:51;;;;;;;16.30;8.90;;;;;-2.22;97050.80;;;;110802;1253;41741;-69
2022/04/05 04:31:20;;;;;;;17.00;8.80;;;;;-2.20;97054.20;;;;110638;1251;41156;-69
2022/04/05 04:33:51;;;;;;;17.20;9.20;;;;;-2.10;97056.00;;;;110854;1251;41277;-69
2022/04/05 04:36:20;;;;;;;20.30;11.00;;;;;-2.00;97057.20;;;;110709;1252;41167;-70
2022/04/05 04:38:49;;;;;;;30.10;15.50;;;;;-1.90;97057.20;;;;110938;1251;41662;-69
2022/04/05 04:41:21;;;;;;;30.50;16.60;;;;;-1.80;97061.00;;;;110689;1253;41206;-68
2022/04/05 04:43:51;;;;;;;24.20;13.80;;;;;-1.70;97060.40;;;;110879;1251;41784;-69
2022/04/05 04:46:20;;;;;;;24.10;13.50;;;;;-1.60;97051.80;;;;110787;1251;41196;-69
2022/04/05 04:48:49;;;;;;;31.10;17.20;;;;;-1.50;97045.20;;;;110887;1251;41368;-69
2022/04/05 04:51:18;;;;;;;38.30;21.70;;;;;-1.40;97041.60;;;;110771;1251;41169;-70
2022/04/05 04:53:47;;;;;;;33.10;16.80;;;;;-1.30;97043.60;;;;110752;1251;41276;-70
2022/04/05 04:56:16;;;;;;;31.60;16.90;;;;;-1.20;97034.40;;;;110751;1251;41561;-68
2022/04/05 04:58:45;;;;;;;25.80;14.00;;;;;-1.04;97032.20;;;;110752;1252;42201;-70
2022/04/05 05:01:14;;;;;;;28.10;14.90;;;;;-0.90;97030.00;;;;110697;1253;41209;-69
2022/04/05 05:03:43;;;;;;;23.00;12.80;;;;;-0.80;97034.00;;;;110738;1253;41372;-69
2022/04/05 05:06:12;;;;;;;21.90;11.80;;;;;-0.62;97033.20;;;;110747;1253;41131;-68
2022/04/05 05:08:41;;;;;;;21.00;10.40;;;;;-0.50;97030.20;;;;110560;1254;41690;-68
2022/04/05 05:11:11;;;;;;;18.20;9.40;;;;;-0.40;97031.40;;;;110738;1250;41268;-68
2022/04/05 05:13:39;;;;;;;19.90;10.30;;;;;-0.22;97034.80;;;;110971;1251;41144;-69
2022/04/05 05:16:09;;;;;;;20.80;11.10;;;;;-0.10;97035.80;;;;110606;1254;41743;-69
2022/04/05 05:18:42;;;;;;;18.60;9.90;;;;;0.10;97029.80;;;;110711;1252;41283;-70
2022/04/05 05:21:14;;;;;;;22.80;12.00;;;;;0.20;97038.60;;;;110646;1254;42468;-69
2022/04/05 05:23:43;;;;;;;26.40;13.90;;;;;0.40;97030.00;;;;110666;1251;41262;-70
2022/04/05 05:26:13;;;;;;;24.50;13.40;;;;;0.60;97029.20;;;;110766;1252;41325;-69
2022/04/05 05:28:42;;;;;;;24.60;12.40;;;;;0.80;97029.40;;;;110787;1251;41406;-68
2022/04/05 05:31:11;;;;;;;21.20;11.40;;;;;0.96;97027.20;;;;110730;1251;41158;-69
2022/04/05 05:33:41;;;;;;;20.70;10.60;;;;;1.10;97024.40;;;;110686;1252;41627;-70
2022/04/05 05:36:22;;;;;;;23.90;12.90;;;;;1.30;97025.60;;;;110700;1251;41131;-71
2022/04/05 05:38:52;;;;;;;31.50;16.70;;;;;1.48;97015.00;;;;110768;1252;41158;-68
2022/04/05 05:41:22;;;;;;;;;;;;;1.60;97009.20;;;;110834;1251;40881;-71
2022/04/05 05:43:52;;;;;;;29.60;17.00;;;;;1.72;97004.20;;;;110669;1253;41045;-69
2022/04/05 05:46:21;;;;;;;22.80;13.10;;;;;1.90;97002.00;;;;110663;1253;41283;-71
2022/04/05 05:48:51;;;;;;;26.30;11.80;;;;;2.10;97002.00;;;;110854;1251;42358;-70
2022/04/05 05:51:20;;;;;;;22.00;10.10;;;;;2.28;97006.40;;;;110743;1251;41265;-69
2022/04/05 05:53:49;;;;;;;21.80;11.80;;;;;2.44;97000.20;;;;110648;1252;41154;-70
2022/04/05 05:56:20;;;;;;;21.60;11.20;;;;;2.68;97006.00;;;;110662;1252;41158;-70
2022/04/05 05:58:51;;;;;;;20.90;10.10;;;;;2.90;96991.60;;;;110541;1254;41646;-70
2022/04/05 06:01:23;;;;;;;20.90;12.30;;;;;3.10;96998.60;;;;110502;1254;41652;-70
2022/04/05 06:03:52;;;;;;;21.50;11.30;;;;;3.26;96999.40;;;;110705;1251;41652;-70
2022/04/05 06:06:22;;;;;;;20.20;10.50;;;;;3.46;96992.40;;;;110518;1252;41174;-70
2022/04/05 06:08:52;;;;;;;18.70;9.80;;;;;3.64;96993.60;;;;110669;1251;41150;-70
2022/04/05 06:11:22;;;;;;;18.10;9.20;;;;;3.80;96992.60;;;;110767;1251;41158;-69
2022/04/05 06:13:53;;;;;;;20.80;10.80;;;;;3.92;96983.00;;;;110651;1251;41488;-67
2022/04/05 06:16:22;;;;;;;21.50;10.60;;;;;4.10;96991.00;;;;110800;1252;41268;-68
2022/04/05 06:18:51;;;;;;;16.90;9.20;;;;;4.26;96988.60;;;;110814;1253;41157;-71
2022/04/05 06:21:21;;;;;;;18.30;9.30;;;;;4.44;96985.20;;;;110787;1253;41137;-69
2022/04/05 06:23:52;;;;;;;22.00;9.90;;;;;4.68;96983.80;;;;110700;1253;41197;-74
2022/04/05 06:26:21;;;;;;;20.30;9.70;;;;;4.80;96978.40;;;;110335;1253;491030;-71
2022/04/05 06:28:56;;;;;;;20.70;10.50;;;;;4.92;96976.60;;;;110790;1251;42352;-72
2022/04/05 06:31:51;;;;;;;14.60;7.90;;;;;4.90;96977.60;;;;110747;1252;42447;-69
2022/04/05 06:34:26;;;;;;;15.50;7.90;;;;;5.00;96976.40;;;;110695;1251;41266;-68
2022/04/05 06:36:55;;;;;;;15.90;8.30;;;;;5.00;96980.20;;;;110635;1254;41323;-66
2022/04/05 06:39:25;;;;;;;14.20;7.20;;;;;5.04;96973.80;;;;110699;1252;40751;-67
2022/04/05 06:41:57;;;;;;;16.70;8.50;;;;;5.08;96975.00;;;;110768;1252;41172;-70
2022/04/05 06:44:50;;;;;;;17.20;7.80;;;;;5.10;96976.00;;;;110751;1253;41267;-70
2022/04/05 06:47:22;;;;;;;15.40;8.50;;;;;5.20;96974.80;;;;110718;1253;41157;-70
2022/04/05 06:50:08;;;;;;;16.40;7.70;;;;;5.30;96974.60;;;;110779;1252;41237;-69
2022/04/05 06:52:44;;;;;;;14.20;7.70;;;;;5.30;96969.80;;;;110737;1252;41158;-71
2022/04/05 06:55:18;;;;;;;13.40;6.80;;;;;5.40;96962.80;;;;110781;1252;40887;-70
2022/04/05 06:57:57;;;;;;;16.50;7.90;;;;;5.42;96961.00;;;;110767;1251;41732;-70
2022/04/05 07:00:33;;;;;;;18.00;7.40;;;;;5.32;96961.00;;;;110754;1253;41173;-70
2022/04/05 07:03:11;;;;;;;14.10;7.00;;;;;5.48;96956.60;;;;110705;1252;41550;-65
2022/04/05 07:05:48;;;;;;;13.60;7.40;;;;;5.70;96959.40;;;;110695;1251;41179;-68
2022/04/05 07:08:20;;;;;;;13.40;6.80;;;;;5.70;96950.60;;;;110679;1252;41181;-69
2022/04/05 07:10:59;;;;;;;16.00;7.90;;;;;5.80;96952.60;;;;110746;1251;41627;-70
2022/04/05 07:13:39;;;;;;;15.70;8.10;;;;;5.80;96957.00;;;;110790;1252;41185;-68
2022/04/05 07:16:16;;;;;;;13.70;6.60;;;;;5.74;96955.20;;;;110774;1251;41610;-70
2022/04/05 07:18:51;;;;;;;11.90;6.00;;;;;5.60;96954.20;;;;110818;1251;41457;-71
2022/04/05 07:21:32;;;;;;;14.50;7.10;;;;;5.70;96952.60;;;;110768;1252;41205;-67
2022/04/05 07:24:10;;;;;;;12.40;6.80;;;;;5.70;96956.20;;;;110882;1251;41159;-68
2022/04/05 07:26:46;;;;;;;13.70;6.00;;;;;5.80;96951.80;;;;110660;1251;41296;-68
2022/04/05 07:29:26;;;;;;;12.00;6.20;;;;;5.90;96952.60;;;;110813;1251;41272;-70
2022/04/05 07:32:01;;;;;;;13.30;6.80;;;;;6.00;96948.00;;;;110630;1252;41893;-69
2022/04/05 07:34:37;;;;;;;13.90;6.30;;;;;6.22;96942.60;;;;110834;1251;41152;-70
2022/04/05 07:37:14;;;;;;;12.00;6.00;;;;;6.30;96941.20;;;;110845;1252;41195;-72
2022/04/05 07:39:52;;;;;;;13.60;6.30;;;;;6.54;96940.40;;;;110762;1252;41271;-70
2022/04/05 07:42:31;;;;;;;12.40;6.80;;;;;6.78;96943.60;;;;110815;1249;41256;-68
2022/04/05 07:45:06;;;;;;;13.80;7.10;;;;;6.94;96949.20;;;;111005;1250;41558;-74
2022/04/05 07:47:39;;;;;;;14.10;6.40;;;;;7.20;96943.60;;;;110705;1252;41741;-69
2022/04/05 07:50:11;;;;;;;12.40;6.20;;;;;7.30;96940.40;;;;110834;1251;41265;-74
2022/04/05 07:52:45;;;;;;;15.00;7.70;;;;;7.50;96942.00;;;;110813;1251;41611;-72
2022/04/05 07:55:18;;;;;;;12.80;6.50;;;;;7.70;96942.00;;;;110716;1251;41615;-68
2022/04/05 07:57:55;;;;;;;14.00;6.90;;;;;7.80;96934.80;;;;110873;1251;41745;-72
2022/04/05 08:00:34;;;;;;;14.00;6.40;;;;;8.02;96935.60;;;;110897;1250;41143;-70
2022/04/05 08:03:11;;;;;;;13.90;6.70;;;;;8.26;96933.40;;;;110992;1251;41140;-71
2022/04/05 08:05:49;;;;;;;13.40;6.60;;;;;8.50;96933.40;;;;110761;1251;41721;-72
2022/04/05 08:08:22;;;;;;;13.40;6.20;;;;;8.70;96931.80;;;;110880;1251;41629;-71
2022/04/05 08:11:24;;;;;;;13.50;5.70;;;;;8.80;96922.00;;;;110629;1251;41644;-70
2022/04/05 08:13:57;;;;;;;11.90;5.70;;;;;9.00;96922.40;;;;110786;1252;41158;-72
2022/04/05 08:16:32;;;;;;;11.40;5.40;;;;;9.20;96915.20;;;;110778;1251;41161;-73
2022/04/05 08:19:12;;;;;;;11.00;5.40;;;;;9.28;96908.80;;;;110627;1253;41941;-69
2022/04/05 08:21:48;;;;;;;10.40;5.60;;;;;9.48;96909.80;;;;110594;1254;40885;-72
2022/04/05 08:24:20;;;;;;;11.80;6.00;;;;;9.60;96905.20;;;;110718;1252;42273;-71
2022/04/05 08:26:56;;;;;;;11.40;5.40;;;;;9.60;96917.20;;;;110929;1251;42466;-72
2022/04/05 08:29:39;;;;;;;11.60;5.60;;;;;9.70;96908.20;;;;110931;1251;40784;-68
2022/04/05 08:32:21;;;;;;;10.20;4.90;;;;;9.96;96904.80;;;;110872;1251;41144;-74
2022/04/05 08:34:53;;;;;;;10.90;5.40;;;;;10.10;96896.40;;;;110753;1252;41157;-73
2022/04/05 08:37:31;;;;;;;10.90;5.40;;;;;10.30;96891.40;;;;110734;1252;41150;-70
2022/04/05 08:40:18;;;;;;;11.00;5.60;;;;;10.50;96885.80;;;;110479;1252;41434;-72
2022/04/05 08:42:54;;;;;;;12.10;5.60;;;;;10.80;96882.00;;;;110817;1251;41229;-73
2022/04/05 08:45:35;;;;;;;12.40;6.00;;;;;11.06;96875.80;;;;110755;1251;41150;-70
2022/04/05 08:48:26;;;;;;;11.50;5.40;;;;;11.40;96870.60;;;;110672;1250;41874;-71
2022/04/05 08:51:00;;;;;;;10.70;5.60;;;;;11.30;96860.80;;;;110757;1252;41308;-72
2022/04/05 08:53:34;;;;;;;9.80;4.90;;;;;11.40;96860.00;;;;110721;1252;41303;-75
2022/04/05 08:56:15;;;;;;;12.00;5.50;;;;;11.12;96859.40;;;;110744;1252;41159;-68
2022/04/05 08:58:52;;;;;;;11.00;5.60;;;;;10.94;96861.40;;;;111037;1250;41208;-71
2022/04/05 09:01:29;;;;;;;9.60;4.70;;;;;10.84;96863.40;;;;110803;1251;40959;-69
2022/04/05 09:04:04;;;;;;;12.70;5.10;;;;;10.90;96861.40;;;;110704;1251;42397;-69
2022/04/05 09:06:36;;;;;;;13.80;5.50;;;;;11.00;96853.80;;;;110746;1252;41621;-70
2022/04/05 09:09:18;;;;;;;13.40;6.20;;;;;11.08;96852.20;;;;110936;1250;41245;-71
2022/04/05 09:11:59;;;;;;;12.40;5.50;;;;;11.40;96851.80;;;;110628;1253;41599;-74
2022/04/05 09:14:41;;;;;;;12.00;5.30;;;;;11.40;96840.80;;;;110697;1252;41167;-79
2022/04/05 09:17:20;;;;;;;11.20;5.00;;;;;11.88;96843.00;;;;110785;1249;41400;-71
2022/04/05 09:19:58;;;;;;;11.10;5.10;;;;;12.34;96838.00;;;;110887;1251;41146;-71
2022/04/05 09:22:35;;;;;;;10.30;5.20;;;;;12.76;96844.00;;;;110716;1253;41245;-75
2022/04/05 09:25:16;;;;;;;10.50;4.30;;;;;12.72;96841.00;;;;110920;1250;41167;-79
2022/04/05 09:27:59;;;;;;;10.60;5.10;;;;;12.70;96827.00;;;;110650;1254;41162;-73
2022/04/05 09:30:42;;;;;;;9.70;4.70;;;;;13.22;96837.80;;;;110832;1252;43003;-71
2022/04/05 09:33:18;;;;;;;9.50;4.30;;;;;13.20;96827.60;;;;110904;1251;41588;-73
2022/04/05 09:35:55;;;;;;;9.00;4.20;;;;;13.64;96825.80;;;;110782;1251;41704;-71
2022/04/05 09:38:29;;;;;;;10.30;5.00;;;;;14.14;96817.40;;;;110720;1251;41175;-72
2022/04/05 09:41:16;;;;;;;9.60;4.80;;;;;14.58;96814.20;;;;110769;1252;42278;-73
2022/04/05 09:43:57;;;;;;;10.70;4.60;;;;;13.94;96803.60;;;;110833;1251;41638;-72
2022/04/05 09:46:30;;;;;;;;;;;;;14.24;96803.20;;;;110810;1251;41278;-72
2022/04/05 09:49:13;;;;;;;10.40;4.50;;;;;14.86;96791.60;;;;110853;1251;41248;-72
2022/04/05 09:51:50;;;;;;;11.00;3.80;;;;;15.52;96790.40;;;;110872;1251;40986;-71
2022/04/05 09:54:40;;;;;;;9.10;4.30;;;;;15.32;96786.60;;;;110618;1252;41182;-73
2022/04/05 09:57:15;;;;;;;9.10;4.30;;;;;15.06;96783.40;;;;110831;1251;41488;-71
2022/04/05 10:00:13;;;;;;;10.20;4.40;;;;;15.10;96781.20;;;;110704;1253;41795;-72
2022/04/05 10:03:01;;;;;;;9.60;4.10;;;;;15.70;96768.20;;;;110852;1252;41476;-74
2022/04/05 10:05:35;;;;;;;8.00;3.50;;;;;16.78;96767.00;;;;110828;1250;42482;-71
2022/04/05 10:08:15;;;;;;;10.20;4.40;;;;;17.16;96756.40;;;;110836;1251;41206;-72
2022/04/05 10:10:56;;;;;;;9.80;3.80;;;;;17.20;96759.40;;;;110906;1250;41885;-73
2022/04/05 10:13:33;;;;;;;10.10;4.30;;;;;16.26;96750.40;;;;110831;1251;41153;-73
2022/04/05 10:16:13;;;;;;;8.70;4.00;;;;;16.68;96747.60;;;;110916;1250;41169;-71
2022/04/05 10:19:11;;;;;;;8.00;3.90;;;;;16.84;96743.60;;;;110669;1253;41275;-73
2022/04/05 10:21:49;;;;;;;9.10;3.80;;;;;17.48;96733.80;;;;110856;1249;41264;-73
2022/04/05 10:24:29;;;;;;;11.50;3.80;;;;;18.18;96722.80;;;;110652;1251;41281;-72
2022/04/05 10:27:05;;;;;;;9.50;4.20;;;;;17.80;96732.40;;;;110701;1253;41193;-73
2022/04/05 10:29:38;;;;;;;9.80;3.70;;;;;17.56;96728.00;;;;110495;1252;41283;-74
2022/04/05 10:32:33;;;;;;;11.00;3.90;;;;;17.14;96722.00;;;;110686;1253;41303;-73
2022/04/05 10:35:12;;;;;;;8.70;4.10;;;;;16.40;96721.40;;;;110830;1251;41536;-73
2022/04/05 10:38:00;;;;;;;8.30;3.70;;;;;16.60;96726.40;;;;110665;1252;41134;-73
2022/04/05 10:40:37;;;;;;;8.30;3.70;;;;;16.48;96726.20;;;;110797;1251;41147;-74
2022/04/05 10:43:18;;;;;;;;;;;;;16.42;96723.80;;;;110820;1252;41165;-75
2022/04/05 10:45:58;;;;;;;8.80;3.20;;;;;16.34;96714.80;;;;110661;1252;41254;-73
2022/04/05 10:48:34;;;;;;;7.70;2.80;;;;;16.44;96716.60;;;;110867;1250;41707;-73
2022/04/05 10:51:09;;;;;;;9.70;3.60;;;;;16.60;96715.80;;;;110641;1252;42134;-74
2022/04/05 10:54:17;;;;;;;8.50;3.50;;;;;16.44;96708.40;;;;110708;1252;41167;-73
2022/04/05 10:57:30;;;;;;;9.40;3.70;;;;;16.44;96714.40;;;;110682;1252;41527;-74
2022/04/05 11:00:19;;;;;;;7.50;3.30;;;;;17.14;96694.40;;;;110751;1249;41206;-73
2022/04/05 11:03:00;;;;;;;7.80;3.00;;;;;17.48;96695.20;;;;111000;1250;40750;-74
2022/04/05 11:05:41;;;;;;;7.50;2.90;;;;;17.96;96691.60;;;;110764;1251;41286;-74
2022/04/05 11:08:23;;;;;;;9.60;3.60;;;;;18.48;96677.00;;;;110822;1250;41227;-71
2022/04/05 11:11:02;;;;;;;8.50;3.00;;;;;18.52;96678.60;;;;110773;1252;41378;-72
2022/04/05 11:13:44;;;;;;;7.90;3.20;;;;;18.30;96682.80;;;;110777;1252;41258;-73
2022/04/05 11:16:39;;;;;;;12.30;2.90;;;;;17.18;96678.40;;;;110664;1251;42469;-72
2022/04/05 11:19:15;;;;;;;8.90;3.20;;;;;17.60;96666.40;;;;110600;1252;41243;-73
2022/04/05 11:22:00;;;;;;;8.70;3.30;;;;;18.36;96659.20;;;;110679;1252;41165;-73
2022/04/05 11:25:13;;;;;;;9.70;3.60;;;;;18.82;96664.00;;;;110758;1251;41253;-73
2022/04/05 11:27:55;;;;;;;7.80;3.20;;;;;19.70;96655.20;;;;110745;1252;41140;-73
2022/04/05 11:30:56;;;;;;;8.60;3.50;;;;;19.22;96645.00;;;;110848;1249;41149;-75
2022/04/05 11:33:36;;;;;;;8.10;3.60;;;;;19.04;96651.60;;;;110931;1250;41376;-75
2022/04/05 11:36:21;;;;;;;7.10;3.40;;;;;18.62;96648.00;;;;110766;1251;41638;-74
2022/04/05 11:39:03;;;;;;;7.70;3.10;;;;;18.24;96644.40;;;;110704;1251;41556;-73
2022/04/05 11:41:39;;;;;;;7.70;3.20;;;;;18.68;96648.60;;;;110835;1251;41277;-73
2022/04/05 11:44:16;;;;;;;9.00;3.30;;;;;17.90;96651.20;;;;110694;1252;41286;-72
2022/04/05 11:46:57;;;;;;;7.30;3.20;;;;;16.96;96654.00;;;;110664;1250;41142;-72
2022/04/05 11:49:48;;;;;;;8.10;3.30;;;;;16.18;96647.20;;;;110889;1250;41155;-72
2022/04/05 11:52:30;;;;;;;8.40;3.20;;;;;15.30;96654.40;;;;110761;1252;41376;-72
2022/04/05 11:58:51;;;;;;;7.40;3.10;;;;;14.80;96644.00;;;;110402;1256;41618;-70
2022/04/05 12:01:36;;;;;;;7.40;3.10;;;;;14.90;96641.60;;;;110441;1256;41157;-73
2022/04/05 12:04:17;;;;;;;8.60;3.50;;;;;15.10;96634.00;;;;110624;1252;41148;-73
2022/04/05 12:06:58;;;;;;;7.60;3.10;;;;;15.38;96640.20;;;;110688;1252;41203;-73
2022/04/05 12:09:40;;;;;;;7.70;3.00;;;;;15.26;96637.20;;;;110882;1251;41227;-72
2022/04/05 12:12:18;;;;;;;7.30;3.30;;;;;15.50;96628.40;;;;110817;1250;41922;-72
2022/04/05 12:14:55;;;;;;;7.70;3.30;;;;;15.46;96621.80;;;;110643;1253;41153;-72
2022/04/05 12:17:31;;;;;;;7.40;3.00;;;;;15.70;96620.20;;;;110791;1251;41162;-72
2022/04/05 12:20:10;;;;;;;8.10;3.10;;;;;15.60;96610.00;;;;110788;1252;41155;-71
2022/04/05 12:22:46;;;;;;;6.40;2.80;;;;;15.60;96614.00;;;;110656;1251;41626;-72
2022/04/05 12:25:33;;;;;;;8.60;3.00;;;;;15.28;96597.40;;;;110822;1252;42080;-72
2022/04/05 12:28:08;;;;;;;7.40;2.80;;;;;15.40;96597.60;;;;110619;1252;42034;-70
2022/04/05 12:30:39;;;;;;;8.70;3.40;;;;;15.50;96587.40;;;;110800;1251;41167;-71
2022/04/05 12:33:26;;;;;;;10.60;3.30;;;;;15.68;96582.60;;;;110815;1252;41156;-71
2022/04/05 12:36:04;;;;;;;9.50;3.40;;;;;15.82;96588.00;;;;110592;1252;41165;-72
2022/04/05 12:38:47;;;;;;;8.50;3.20;;;;;15.50;96581.00;;;;110875;1251;41773;-74
2022/04/05 12:41:22;;;;;;;7.60;3.30;;;;;15.34;96575.60;;;;110587;1252;41787;-73
2022/04/05 12:44:18;;;;;;;5.70;2.70;;;;;15.16;96589.60;;;;110862;1251;41927;-75
2022/04/05 12:46:54;;;;;;;6.20;2.80;;;;;15.00;96575.40;;;;110611;1253;41585;-70